Time;durP1;ratioP1;P1;durP2;ratioP2;P2;SDS_P1;SDS_P2;PMS_P1;PMS_P2;Temp;Humidity;BMP_temperature;BMP_pressure;BME280_temperature;BME280_humidity;BME280_pressure;Samples;Min_cycle;Max_cycle;Signal;HPM_P1;HPM_P2
2024/01/15 00:01:24;;;;;;;;;12.00;9.00;;;;;21.38;47.28;98441.98;112250;1260;20739;-75
2024/01/15 00:03:51;;;;;;;;;10.00;7.00;;;;;21.41;47.46;98439.11;112412;1260;19555;-75
2024/01/15 00:06:19;;;;;;;;;4.00;4.00;;;;;21.40;47.30;98435.81;112243;1260;18893;-75
2024/01/15 00:08:46;;;;;;;;;6.00;6.00;;;;;21.39;47.12;98431.75;112422;1260;19329;-76
2024/01/15 00:11:14;;;;;;;;;6.00;6.00;;;;;21.41;47.24;98426.83;112264;1260;18723;-76
2024/01/15 00:13:41;;;;;;;;;5.00;4.00;;;;;21.40;47.03;98424.40;112397;1253;21398;-77
2024/01/15 00:16:09;;;;;;;;;6.67;6.00;;;;;21.37;46.97;98420.14;112128;1260;229737;-76
2024/01/15 00:18:36;;;;;;;;;10.00;7.00;;;;;21.37;47.18;98413.83;112376;1246;18770;-75
2024/01/15 00:21:03;;;;;;;;;4.00;4.00;;;;;21.35;46.94;98414.64;112334;1260;20414;-76
2024/01/15 00:23:31;;;;;;;;;6.00;4.00;;;;;21.34;47.02;98409.16;112183;1246;21122;-76
2024/01/15 00:25:58;;;;;;;;;3.50;3.50;;;;;21.35;46.84;98405.30;112367;1246;19821;-75
2024/01/15 00:28:26;;;;;;;;;6.00;4.00;;;;;21.36;46.81;98401.11;112223;1246;20119;-76
2024/01/15 00:30:53;;;;;;;;;5.33;5.33;;;;;21.34;46.94;98397.48;112361;1246;21906;-75
2024/01/15 00:33:20;;;;;;;;;4.00;4.00;;;;;21.35;46.65;98396.83;112252;1245;19632;-76
2024/01/15 00:35:48;;;;;;;;;4.00;3.00;;;;;21.33;46.66;98387.89;112386;1245;20281;-76
2024/01/15 00:38:15;;;;;;;;;3.00;3.00;;;;;21.33;46.93;98383.90;112274;1260;19697;-75
2024/01/15 00:40:43;;;;;;;;;3.00;3.00;;;;;21.34;46.90;98380.90;112424;1260;18660;-75
2024/01/15 00:43:10;;;;;;;;;4.00;3.00;;;;;21.32;46.53;98378.03;112271;1260;19971;-76
2024/01/15 00:45:38;;;;;;;;;4.00;3.50;;;;;21.31;46.75;98372.15;112403;1260;20726;-77
2024/01/15 00:48:05;;;;;;;;;4.00;3.00;;;;;21.32;46.32;98362.40;112281;1254;18150;-76
2024/01/15 00:50:33;;;;;;;;;3.00;3.00;;;;;21.31;46.61;98362.38;112459;1246;18715;-75
2024/01/15 00:53:00;;;;;;;;;5.00;3.50;;;;;21.29;46.48;98361.02;112331;1245;19872;-76
2024/01/15 00:55:27;;;;;;;;;4.00;4.00;;;;;21.29;46.49;98352.23;112287;1260;19018;-76
2024/01/15 00:57:55;;;;;;;;;3.00;3.00;;;;;21.30;46.39;98350.16;112324;1260;18834;-76
2024/01/15 01:00:22;;;;;;;;;3.00;3.00;;;;;21.31;46.39;98346.87;112203;1260;19555;-76
2024/01/15 01:02:50;;;;;;;;;3.00;3.00;;;;;21.30;46.32;98345.82;112340;1260;19691;-76
2024/01/15 01:05:17;;;;;;;;;4.00;3.67;;;;;21.29;46.39;98340.80;112217;1260;18588;-76
2024/01/15 01:07:45;;;;;;;;;2.00;2.00;;;;;21.31;46.36;98333.48;112399;1245;19348;-76
2024/01/15 01:10:12;;;;;;;;;1.00;1.00;;;;;21.28;46.06;98332.99;112286;1260;18575;-75
2024/01/15 01:12:40;;;;;;;;;3.00;3.00;;;;;21.26;46.42;98325.92;112411;1260;18496;-76
2024/01/15 01:15:07;;;;;;;;;1.00;1.00;;;;;21.26;46.06;98324.07;112267;1260;19548;-76
2024/01/15 01:17:35;;;;;;;;;6.00;3.00;;;;;21.26;46.10;98323.52;112414;1260;19501;-76
2024/01/15 01:20:04;;;;;;;;;5.00;4.00;;;;;21.28;46.05;98316.42;112222;1260;18782;-76
2024/01/15 01:22:31;;;;;;;;;4.50;3.00;;;;;21.28;46.30;98317.97;112351;1260;19721;-76
2024/01/15 01:24:59;;;;;;;;;4.00;3.00;;;;;21.28;46.33;98307.85;112313;1245;19270;-75
2024/01/15 01:27:26;;;;;;;;;4.67;3.33;;;;;21.26;46.05;98307.80;112512;1260;18609;-76
2024/01/15 01:29:54;;;;;;;;;6.00;3.00;;;;;21.25;45.97;98306.14;112448;1260;19534;-75
2024/01/15 01:32:21;;;;;;;;;3.00;3.00;;;;;21.26;45.89;98304.85;112415;1260;18090;-75
2024/01/15 01:34:48;;;;;;;;;2.33;2.33;;;;;21.25;46.14;98299.12;112302;1253;18636;-75
2024/01/15 01:37:16;;;;;;;;;2.33;2.33;;;;;21.25;45.83;98296.63;112687;1260;20691;-76
2024/01/15 01:39:43;;;;;;;;;1.00;1.00;;;;;21.24;45.79;98295.10;112705;1253;18197;-75
2024/01/15 01:42:11;;;;;;;;;4.00;4.00;;;;;21.24;46.00;98283.92;112747;1245;18644;-76
2024/01/15 01:44:38;;;;;;;;;3.00;3.00;;;;;21.25;46.07;98287.52;112583;1260;19397;-75
2024/01/15 01:47:06;;;;;;;;;3.50;3.00;;;;;21.25;46.02;98283.46;112577;1260;18342;-75
2024/01/15 01:49:35;;;;;;;;;4.00;4.00;;;;;21.25;46.03;98282.25;112610;1260;20366;-74
2024/01/15 01:52:03;;;;;;;;;3.00;3.00;;;;;21.24;45.70;98281.59;112613;1260;19537;-75
2024/01/15 01:54:30;;;;;;;;;3.00;1.00;;;;;21.25;45.74;98278.55;112278;1260;19861;-76
2024/01/15 01:56:58;;;;;;;;;3.00;3.00;;;;;21.24;45.88;98269.77;112378;1260;19864;-76
2024/01/15 01:59:25;;;;;;;;;4.00;3.00;;;;;21.25;45.53;98263.89;112230;1260;19676;-76
2024/01/15 02:01:52;;;;;;;;;3.00;3.00;;;;;21.26;45.49;98260.10;112391;1260;18800;-74
2024/01/15 02:04:20;;;;;;;;;3.00;3.00;;;;;21.27;45.80;98250.20;112256;1260;20411;-75
2024/01/15 02:06:47;;;;;;;;;1.00;1.00;;;;;21.27;45.81;98246.99;112665;1262;20850;-75
2024/01/15 02:09:15;;;;;;;;;3.00;1.00;;;;;21.25;45.76;98243.88;112557;1246;19522;-76
2024/01/15 02:11:43;;;;;;;;;3.00;3.00;;;;;21.23;45.81;98236.52;112727;1262;18868;-75
2024/01/15 02:14:10;;;;;;;;;3.00;3.00;;;;;21.25;45.69;98232.27;112561;1262;19327;-75
2024/01/15 02:16:38;;;;;;;;;3.00;1.00;;;;;21.24;45.87;98230.85;112725;1254;18136;-76
2024/01/15 02:19:05;;;;;;;;;1.00;1.00;;;;;21.24;45.45;98223.09;112551;1246;18633;-76
2024/01/15 02:21:32;;;;;;;;;3.00;2.00;;;;;21.23;45.69;98217.05;112688;1262;19336;-75
2024/01/15 02:24:00;;;;;;;;;1.00;1.00;;;;;21.23;45.38;98213.16;112256;1261;18360;-75
2024/01/15 02:26:28;;;;;;;;;3.00;3.00;;;;;21.24;45.69;98206.34;112416;1261;18551;-76
2024/01/15 02:28:55;;;;;;;;;1.00;1.00;;;;;21.25;45.52;98203.83;112218;1254;22444;-75
2024/01/15 02:31:23;;;;;;;;;1.00;1.00;;;;;21.25;45.68;98203.06;112394;1246;18547;-76
2024/01/15 02:33:50;;;;;;;;;1.00;1.00;;;;;21.24;45.55;98195.30;112252;1262;18769;-75
2024/01/15 02:36:18;;;;;;;;;1.00;1.00;;;;;21.23;45.68;98198.60;112345;1262;19375;-75
2024/01/15 02:38:45;;;;;;;;;3.00;1.00;;;;;21.22;45.54;98198.29;112277;1261;18663;-74
2024/01/15 02:41:14;;;;;;;;;1.00;1.00;;;;;21.23;45.40;98192.80;112280;1261;18972;-74
2024/01/15 02:43:41;;;;;;;;;1.00;1.00;;;;;21.23;45.24;98195.27;112207;1262;19611;-75
2024/01/15 02:46:09;;;;;;;;;1.00;1.00;;;;;21.23;45.25;98190.05;112438;1254;18288;-75
2024/01/15 02:48:36;;;;;;;;;3.00;3.00;;;;;21.22;45.39;98188.30;112270;1246;18638;-76
2024/01/15 02:51:03;;;;;;;;;3.00;3.00;;;;;21.21;45.34;98182.67;112372;1261;19553;-75
2024/01/15 02:53:31;;;;;;;;;3.00;3.00;;;;;21.20;45.62;98175.63;112223;1262;18139;-76
2024/01/15 02:55:58;;;;;;;;;3.00;3.00;;;;;21.21;45.29;98173.32;112357;1261;18850;-76
2024/01/15 02:58:26;;;;;;;;;1.00;1.00;;;;;21.21;45.24;98173.07;112170;1262;22155;-75
2024/01/15 03:00:54;;;;;;;;;1.00;1.00;;;;;21.21;45.50;98174.89;112397;1254;18154;-75
2024/01/15 03:03:21;;;;;;;;;1.00;1.00;;;;;21.20;45.37;98173.67;112205;1261;18814;-75
2024/01/15 03:05:49;;;;;;;;;3.00;3.00;;;;;21.21;45.16;98176.44;112321;1246;20889;-75
2024/01/15 03:08:17;;;;;;;;;2.33;2.33;;;;;21.21;45.06;98176.22;112291;1254;18210;-76
2024/01/15 03:10:44;;;;;;;;;1.00;1.00;;;;;21.20;45.36;98162.46;112443;1246;18910;-75
2024/01/15 03:13:12;;;;;;;;;1.00;1.00;;;;;21.20;45.09;98158.11;112382;1253;19328;-74
2024/01/15 03:15:39;;;;;;;;;1.00;1.00;;;;;21.19;45.11;98151.39;112480;1244;20838;-75
2024/01/15 03:18:06;;;;;;;;;3.00;3.00;;;;;21.19;45.14;98150.76;112270;1260;19907;-75
2024/01/15 03:20:34;;;;;;;;;1.00;1.00;;;;;21.19;45.27;98147.73;112192;1260;19512;-74
2024/01/15 03:23:01;;;;;;;;;1.00;1.00;;;;;21.20;45.31;98141.46;112433;1253;18133;-76
2024/01/15 03:25:29;;;;;;;;;3.00;3.00;;;;;21.20;45.06;98142.16;112264;1245;21286;-75
2024/01/15 03:27:56;;;;;;;;;1.00;1.00;;;;;21.19;45.10;98133.74;112458;1244;20384;-75
2024/01/15 03:30:24;;;;;;;;;1.00;1.00;;;;;21.19;44.85;98129.52;112250;1260;18514;-76
2024/01/15 03:32:51;;;;;;;;;1.00;1.00;;;;;21.19;44.97;98125.55;112464;1254;19954;-76
2024/01/15 03:35:18;;;;;;;;;3.00;1.00;;;;;21.20;45.06;98122.56;112294;1260;19685;-75
2024/01/15 03:37:46;;;;;;;;;1.00;1.00;;;;;21.20;45.07;98124.96;112504;1246;20001;-76
2024/01/15 03:40:13;;;;;;;;;3.00;3.00;;;;;21.19;45.06;98119.05;112337;1260;18661;-75
2024/01/15 03:42:41;;;;;;;;;1.00;1.00;;;;;21.19;45.05;98116.71;112519;1260;19378;-76
2024/01/15 03:45:08;;;;;;;;;1.00;1.00;;;;;21.20;44.95;98110.76;112362;1260;18777;-76
2024/01/15 03:47:36;;;;;;;;;2.00;2.00;;;;;21.20;44.80;98104.92;112522;1244;18970;-75
2024/01/15 03:50:03;;;;;;;;;1.00;1.00;;;;;21.20;44.92;98105.05;112386;1260;19305;-75
2024/01/15 03:52:31;;;;;;;;;3.00;1.00;;;;;21.20;44.70;98101.33;112331;1260;19831;-76
2024/01/15 03:54:58;;;;;;;;;1.00;1.00;;;;;21.19;44.83;98093.67;112405;1260;18606;-76
2024/01/15 03:57:25;;;;;;;;;1.00;1.00;;;;;21.19;44.88;98096.92;112262;1260;20897;-76
2024/01/15 03:59:53;;;;;;;;;1.00;1.00;;;;;21.19;44.81;98091.64;112420;1260;18582;-76
2024/01/15 04:02:20;;;;;;;;;3.00;3.00;;;;;21.18;44.68;98087.12;112254;1244;20095;-75
2024/01/15 04:04:48;;;;;;;;;2.00;2.00;;;;;21.19;44.88;98079.50;112350;1260;19552;-75
2024/01/15 04:07:15;;;;;;;;;1.00;1.00;;;;;21.18;45.02;98074.35;112295;1260;19503;-76
2024/01/15 04:09:42;;;;;;;;;1.00;1.00;;;;;21.17;44.57;98074.88;112359;1260;21075;-76
2024/01/15 04:12:10;;;;;;;;;1.00;1.00;;;;;21.18;44.77;98069.59;112282;1260;19488;-75
2024/01/15 04:14:37;;;;;;;;;1.67;1.67;;;;;21.18;44.99;98066.25;112373;1253;18149;-76
2024/01/15 04:17:05;;;;;;;;;1.00;1.00;;;;;21.17;44.62;98063.66;112303;1260;18981;-76
2024/01/15 04:19:32;;;;;;;;;3.00;3.00;;;;;21.17;44.67;98058.70;112378;1245;19594;-76
2024/01/15 04:22:00;;;;;;;;;3.00;3.00;;;;;21.17;44.91;98054.02;112354;1260;18560;-76
2024/01/15 04:24:27;;;;;;;;;1.00;1.00;;;;;21.16;44.82;98053.36;112347;1253;18832;-75
2024/01/15 04:26:54;;;;;;;;;3.00;3.00;;;;;21.15;44.64;98050.08;112354;1260;19413;-75
2024/01/15 04:29:22;;;;;;;;;1.00;1.00;;;;;21.16;44.68;98043.25;112216;1247;19609;-76
2024/01/15 04:31:49;;;;;;;;;3.00;3.00;;;;;21.16;44.48;98039.34;112332;1260;20158;-76
2024/01/15 04:34:17;;;;;;;;;3.00;3.00;;;;;21.16;44.70;98033.29;112269;1260;20812;-76
2024/01/15 04:36:44;;;;;;;;;1.00;1.00;;;;;21.16;44.27;98029.64;112396;1260;18121;-76
2024/01/15 04:39:12;;;;;;;;;2.00;2.00;;;;;21.17;44.56;98022.04;112301;1245;20067;-75
2024/01/15 04:41:39;;;;;;;;;3.00;3.00;;;;;21.16;44.36;98021.02;112359;1253;19329;-76
2024/01/15 04:44:07;;;;;;;;;2.33;2.33;;;;;21.17;44.30;98022.52;112249;1253;18631;-76
2024/01/15 04:46:34;;;;;;;;;1.00;1.00;;;;;21.16;44.53;98016.83;112368;1246;21232;-76
2024/01/15 04:49:02;;;;;;;;;3.00;3.00;;;;;21.16;44.48;98016.95;112221;1260;24473;-76
2024/01/15 04:51:29;;;;;;;;;1.00;1.00;;;;;21.16;44.51;98013.94;112380;1260;18392;-76
2024/01/15 04:53:57;;;;;;;;;3.33;3.00;;;;;21.17;44.60;98012.40;112250;1260;20089;-76
2024/01/15 04:56:24;;;;;;;;;1.00;1.00;;;;;21.16;44.55;98012.60;112400;1245;20837;-77
2024/01/15 04:58:52;;;;;;;;;3.00;3.00;;;;;21.16;44.37;98012.06;112306;1253;18192;-76
2024/01/15 05:01:19;;;;;;;;;1.00;1.00;;;;;21.16;44.47;98016.12;112395;1245;21621;-76
2024/01/15 05:03:46;;;;;;;;;3.00;3.00;;;;;21.16;44.24;98011.59;112197;1260;20369;-76
2024/01/15 05:06:14;;;;;;;;;3.00;3.00;;;;;21.16;44.53;98011.20;112368;1245;19552;-76
2024/01/15 05:08:41;;;;;;;;;2.33;2.33;;;;;21.15;44.13;98005.11;112334;1260;18636;-76
2024/01/15 05:11:09;;;;;;;;;1.00;1.00;;;;;21.15;44.31;98011.71;112210;1246;19563;-76
2024/01/15 05:13:36;;;;;;;;;3.00;3.00;;;;;21.14;44.51;98006.09;112256;1260;19675;-76
2024/01/15 05:16:04;;;;;;;;;3.00;3.00;;;;;21.16;44.47;98006.14;112246;1253;18860;-76
2024/01/15 05:18:31;;;;;;;;;3.00;3.00;;;;;21.15;44.22;98006.98;112385;1245;19394;-76
2024/01/15 05:20:59;;;;;;;;;3.50;3.00;;;;;21.16;43.83;98013.60;112221;1260;19730;-75
2024/01/15 05:23:26;;;;;;;;;3.00;3.00;;;;;21.15;44.25;98010.92;112371;1253;18643;-76
2024/01/15 05:25:53;;;;;;;;;3.00;3.00;;;;;21.15;44.26;98012.27;112232;1260;19345;-77
2024/01/15 05:28:21;;;;;;;;;3.00;3.00;;;;;21.15;44.10;98002.52;112407;1260;18373;-76
2024/01/15 05:30:50;;;;;;;;;3.00;3.00;;;;;21.14;44.04;98003.70;112287;1246;20048;-76
2024/01/15 05:33:17;;;;;;;;;3.00;3.00;;;;;21.14;44.14;97999.63;112324;1260;20911;-75
2024/01/15 05:35:45;;;;;;;;;3.00;3.00;;;;;21.15;44.42;97998.74;112192;1260;18555;-76
2024/01/15 05:38:12;;;;;;;;;1.00;1.00;;;;;21.15;44.22;97998.71;112351;1260;18691;-76
2024/01/15 05:40:40;;;;;;;;;3.00;3.00;;;;;21.15;44.14;98000.20;112244;1254;20877;-76
2024/01/15 05:43:07;;;;;;;;;3.00;3.00;;;;;21.14;44.04;97997.83;112327;1260;18154;-76
2024/01/15 05:45:35;;;;;;;;;3.00;3.00;;;;;21.13;43.94;97996.11;112219;1251;18820;-75
2024/01/15 05:48:03;;;;;;;;;1.00;1.00;;;;;21.13;43.89;97997.04;112322;1260;19955;-76
2024/01/15 05:50:31;;;;;;;;;1.00;1.00;;;;;21.13;43.85;98001.08;112256;1247;19486;-76
2024/01/15 05:52:58;;;;;;;;;1.00;1.00;;;;;21.13;44.06;98000.60;112278;1260;20082;-77
2024/01/15 05:55:26;;;;;;;;;1.00;1.00;;;;;21.12;43.99;98004.00;112207;1246;19763;-76
2024/01/15 05:57:53;;;;;;;;;1.00;1.00;;;;;21.13;44.13;98005.66;112285;1260;18244;-76
2024/01/15 06:00:21;;;;;;;;;3.00;3.00;;;;;21.12;44.12;98008.52;112223;1260;20111;-76
2024/01/15 06:02:49;;;;;;;;;3.00;3.00;;;;;21.13;44.13;98015.32;112312;1260;19566;-76
2024/01/15 06:05:16;;;;;;;;;3.00;3.00;;;;;21.15;43.92;98020.27;112209;1248;19598;-76
2024/01/15 06:07:43;;;;;;;;;3.00;3.00;;;;;21.14;43.96;98018.70;112387;1260;19928;-76
2024/01/15 06:10:11;;;;;;;;;1.00;1.00;;;;;21.16;43.89;98019.36;112229;1260;19550;-76
2024/01/15 06:12:38;;;;;;;;;3.00;2.33;;;;;21.15;43.95;98017.56;112368;1260;20727;-77
2024/01/15 06:15:06;;;;;;;;;2.33;2.33;;;;;21.16;44.20;98010.97;112214;1260;22796;-76
2024/01/15 06:17:34;;;;;;;;;1.00;1.00;;;;;21.15;44.28;98013.66;112379;1253;19751;-75
2024/01/15 06:20:01;;;;;;;;;3.50;3.00;;;;;21.15;44.07;98019.18;112226;1254;18598;-76
2024/01/15 06:22:29;;;;;;;;;3.00;3.00;;;;;21.15;44.18;98017.70;112356;1260;18821;-76
2024/01/15 06:24:56;;;;;;;;;3.00;3.00;;;;;21.14;44.21;98021.23;112236;1260;19788;-76
2024/01/15 06:27:24;;;;;;;;;3.00;3.00;;;;;21.15;44.10;98023.83;112353;1260;18894;-76
2024/01/15 06:29:51;;;;;;;;;1.67;1.67;;;;;21.15;43.99;98018.09;112292;1249;20093;-77
2024/01/15 06:32:18;;;;;;;;;4.00;3.00;;;;;21.15;44.00;98014.98;112399;1246;20708;-77
2024/01/15 06:34:46;;;;;;;;;3.00;3.00;;;;;21.14;43.92;98010.77;112317;1245;20693;-77
2024/01/15 06:37:13;;;;;;;;;2.00;2.00;;;;;21.14;44.18;98012.79;112443;1246;20080;-77
2024/01/15 06:39:41;;;;;;;;;3.00;3.00;;;;;21.14;43.99;98012.46;112285;1246;21815;-77
2024/01/15 06:42:08;;;;;;;;;2.00;2.00;;;;;21.14;43.95;98013.64;112201;1245;19436;-76
2024/01/15 06:44:36;;;;;;;;;3.00;3.00;;;;;21.13;43.73;98004.74;112324;1260;19972;-77
2024/01/15 06:47:03;;;;;;;;;3.00;3.00;;;;;21.14;43.95;98014.86;112181;1260;21839;-77
2024/01/15 06:49:31;;;;;;;;;1.00;1.00;;;;;21.14;43.79;98010.75;112342;1246;20802;-77
2024/01/15 06:51:58;;;;;;;;;3.00;3.00;;;;;21.14;43.80;98008.11;112188;1260;18607;-77
2024/01/15 06:54:26;;;;;;;;;1.00;1.00;;;;;21.14;43.81;98005.54;112380;1260;19242;-76
2024/01/15 06:56:53;;;;;;;;;3.00;3.00;;;;;21.21;43.69;98005.80;112239;1254;18146;-76
2024/01/15 06:59:21;;;;;;;;;3.00;3.00;;;;;21.24;43.77;98006.85;112326;1253;18613;-76
2024/01/15 07:01:48;;;;;;;;;1.00;1.00;;;;;21.25;43.67;98000.19;112224;1253;21073;-75
2024/01/15 07:04:16;;;;;;;;;3.00;3.00;;;;;21.28;43.79;98000.51;112314;1260;18346;-76
2024/01/15 07:06:43;;;;;;;;;3.00;3.00;;;;;21.34;44.26;98001.25;112104;1260;19415;-82
2024/01/15 07:09:11;;;;;;;;;1.00;1.00;;;;;21.40;44.29;98004.67;112337;1260;19402;-81
2024/01/15 07:11:38;;;;;;;;;3.00;3.00;;;;;21.40;44.24;98007.05;112241;1253;18222;-80
2024/01/15 07:14:06;;;;;;;;;3.00;3.00;;;;;21.35;44.49;98003.39;112340;1260;21469;-77
2024/01/15 07:16:33;;;;;;;;;1.00;1.00;;;;;21.37;44.21;98004.14;112240;1245;20853;-76
2024/01/15 07:19:01;;;;;;;;;2.33;2.33;;;;;21.41;44.53;97998.20;112421;1260;19734;-76
2024/01/15 07:21:28;;;;;;;;;1.00;1.00;;;;;21.39;44.85;97995.65;112256;1246;19949;-77
2024/01/15 07:23:55;;;;;;;;;3.67;3.67;;;;;21.43;45.05;98001.42;112430;1246;21069;-76
2024/01/15 07:26:23;;;;;;;;;1.00;1.00;;;;;21.38;45.56;98003.00;112297;1260;19507;-78
2024/01/15 07:28:51;;;;;;;;;2.33;2.33;;;;;21.44;45.16;98006.86;112390;1260;18770;-79
2024/01/15 07:31:18;;;;;;;;;3.00;3.00;;;;;21.52;45.09;98007.65;112296;1246;19454;-79
2024/01/15 07:33:46;;;;;;;;;3.00;3.00;;;;;21.52;45.92;98005.93;112458;1260;18706;-76
2024/01/15 07:36:13;;;;;;;;;1.00;1.00;;;;;21.46;46.19;98008.54;112341;1260;20026;-77
2024/01/15 07:38:41;;;;;;;;;1.00;1.00;;;;;21.52;46.23;98019.54;112302;1260;19371;-74
2024/01/15 07:41:08;;;;;;;;;3.00;3.00;;;;;21.51;46.27;98010.52;112305;1246;20919;-76
2024/01/15 07:43:35;;;;;;;;;2.00;2.00;;;;;21.46;46.75;98012.21;112181;1254;19046;-72
2024/01/15 07:46:03;;;;;;;;;1.00;1.00;;;;;21.45;46.77;98001.27;112369;1260;19576;-72
2024/01/15 07:48:30;;;;;;;;;3.00;3.00;;;;;21.46;46.62;97998.60;112177;1254;18154;-77
2024/01/15 07:50:58;;;;;;;;;2.33;2.33;;;;;21.48;46.61;97995.21;112362;1260;18643;-78
2024/01/15 07:53:25;;;;;;;;;3.50;3.00;;;;;21.54;46.58;98002.36;112235;1245;22187;-75
2024/01/15 07:55:53;;;;;;;;;3.00;3.00;;;;;21.57;46.82;98002.36;112382;1245;18818;-76
2024/01/15 07:58:20;;;;;;;;;3.00;3.00;;;;;21.45;46.93;97998.78;112212;1260;18661;-74
2024/01/15 08:00:48;;;;;;;;;3.00;3.00;;;;;21.51;46.81;97999.98;112381;1246;19397;-76
2024/01/15 08:03:18;;;;;;;;;3.50;3.00;;;;;21.55;46.81;98002.52;112236;1260;18170;-73
2024/01/15 08:05:46;;;;;;;;;3.00;3.00;;;;;21.50;46.77;98002.67;112193;1260;21124;-70
2024/01/15 08:08:14;;;;;;;;;2.00;2.00;;;;;21.58;46.48;97993.30;112370;1260;19445;-73
2024/01/15 08:10:41;;;;;;;;;3.00;3.00;;;;;21.64;46.22;97988.33;112205;1260;18398;-76
2024/01/15 08:13:09;;;;;;;;;3.00;3.00;;;;;21.56;46.24;97990.90;112327;1260;18647;-77
2024/01/15 08:15:37;;;;;;;;;3.00;3.00;;;;;21.59;46.55;97998.84;112181;1260;20883;-76
2024/01/15 08:18:04;;;;;;;;;3.33;3.00;;;;;21.53;46.72;97995.63;112356;1260;18164;-77
2024/01/15 08:20:32;;;;;;;;;3.00;3.00;;;;;21.53;47.18;97997.39;112221;1253;18813;-76
2024/01/15 08:22:59;;;;;;;;;3.00;3.00;;;;;21.55;46.44;97991.63;112364;1260;20705;-80
2024/01/15 08:25:27;;;;;;;;;3.00;3.00;;;;;21.56;46.80;97990.58;112230;1260;19492;-78
2024/01/15 08:27:54;;;;;;;;;3.50;3.00;;;;;21.51;46.73;97994.94;112360;1253;18613;-78
2024/01/15 08:30:24;;;;;;;;;4.00;4.00;;;;;21.60;46.62;97994.36;112270;1260;19360;-76
2024/01/15 08:32:52;;;;;;;;;3.00;3.00;;;;;21.60;46.84;97990.95;112077;1260;20602;-76
2024/01/15 08:35:25;;;;;;;;;4.00;4.00;;;;;21.62;46.74;97986.10;112243;1260;18866;-77
2024/01/15 08:37:53;;;;;;;;;4.00;4.00;;;;;21.58;46.73;97994.07;112195;1246;21751;-76
2024/01/15 08:40:20;;;;;;;;;3.00;3.00;;;;;21.58;46.71;97993.76;112364;1260;18883;-77
2024/01/15 08:42:48;;;;;;;;;4.00;4.00;;;;;21.51;47.00;97989.63;112056;1260;20003;-76
2024/01/15 08:45:16;;;;;;;;;4.00;4.00;;;;;21.53;46.96;97991.88;112331;1245;19304;-79
2024/01/15 08:47:44;;;;;;;;;4.00;4.00;;;;;21.59;46.43;97986.54;112436;1260;18271;-77
2024/01/15 08:50:11;;;;;;;;;3.33;3.33;;;;;21.59;46.72;97993.48;112331;1260;18664;-75
2024/01/15 08:52:39;;;;;;;;;4.00;3.00;;;;;21.58;46.42;97995.46;112268;1253;19347;-75
2024/01/15 08:55:07;;;;;;;;;4.00;3.00;;;;;21.51;47.10;97996.10;112337;1260;18309;-77
2024/01/15 08:57:35;;;;;;;;;3.00;3.00;;;;;21.50;46.72;97995.08;112227;1245;18860;-76
2024/01/15 09:00:03;;;;;;;;;4.00;4.00;;;;;21.56;46.53;97994.85;112290;1246;20903;-75
2024/01/15 09:02:31;;;;;;;;;4.00;3.50;;;;;21.58;46.96;97989.23;112305;1260;18771;-77
2024/01/15 09:04:59;;;;;;;;;4.00;4.00;;;;;21.70;46.34;97984.55;112240;1254;21208;-78
2024/01/15 09:07:26;;;;;;;;;5.33;4.00;;;;;21.75;45.93;97989.61;112416;1260;19543;-76
2024/01/15 09:09:54;;;;;;;;;6.00;5.00;;;;;21.74;46.16;97983.59;112257;1244;19502;-77
2024/01/15 09:12:22;;;;;;;;;7.00;4.00;;;;;21.78;45.42;97977.38;112335;1260;21110;-77
2024/01/15 09:14:50;;;;;;;;;6.00;4.00;;;;;21.80;45.72;97975.65;112258;1260;20103;-76
2024/01/15 09:17:17;;;;;;;;;6.00;4.00;;;;;21.73;46.26;97979.66;112373;1260;18505;-76
2024/01/15 09:19:45;;;;;;;;;6.00;6.00;;;;;21.64;45.86;97968.48;112257;1247;20065;-75
2024/01/15 09:22:14;;;;;;;;;3.50;3.50;;;;;21.62;46.05;97968.99;112382;1244;22102;-76
2024/01/15 09:24:41;;;;;;;;;4.00;4.00;;;;;21.55;46.56;97968.91;112485;1260;18258;-77
2024/01/15 09:27:09;;;;;;;;;5.00;3.50;;;;;21.46;46.51;97969.73;112347;1259;21268;-76
2024/01/15 09:29:37;;;;;;;;;3.00;3.00;;;;;21.42;46.58;97969.89;112487;1244;22368;-76
2024/01/15 09:32:04;;;;;;;;;4.00;4.00;;;;;21.39;46.56;97969.19;112301;1260;21254;-76
2024/01/15 09:34:31;;;;;;;;;4.00;4.00;;;;;21.37;46.42;97961.21;112530;1260;19043;-75
2024/01/15 09:36:59;;;;;;;;;6.00;5.00;;;;;21.43;46.47;97962.41;112361;1244;19412;-76
2024/01/15 09:39:27;;;;;;;;;4.00;3.00;;;;;21.42;46.08;97961.43;112509;1260;18731;-76
2024/01/15 09:41:54;;;;;;;;;4.00;4.00;;;;;21.45;45.99;97962.54;112341;1253;18663;-76
2024/01/15 09:44:22;;;;;;;;;4.00;4.00;;;;;21.43;45.91;97953.54;112490;1260;19421;-78
2024/01/15 09:46:50;;;;;;;;;4.00;3.50;;;;;21.53;45.95;97943.80;112336;1259;18591;-75
2024/01/15 09:49:17;;;;;;;;;4.00;4.00;;;;;21.55;45.77;97936.79;112494;1260;18515;-76
2024/01/15 09:51:45;;;;;;;;;4.00;4.00;;;;;21.45;46.26;97941.20;112322;1244;19585;-70
2024/01/15 09:54:13;;;;;;;;;5.00;3.50;;;;;21.51;45.99;97936.41;112505;1260;19708;-75
2024/01/15 09:56:40;;;;;;;;;5.33;4.00;;;;;21.56;46.05;97940.79;112329;1252;19171;-75
2024/01/15 09:59:08;;;;;;;;;5.00;3.67;;;;;21.56;45.94;97936.73;112383;1256;19349;-76
2024/01/15 10:01:36;;;;;;;;;5.00;5.00;;;;;21.47;45.85;97953.25;112301;1260;18166;-77
2024/01/15 10:04:03;;;;;;;;;8.00;6.00;;;;;21.24;44.95;97942.64;112396;1252;18632;-77
2024/01/15 10:06:31;;;;;;;;;6.00;5.00;;;;;21.16;43.86;97944.71;112300;1260;19361;-76
2024/01/15 10:08:59;;;;;;;;;4.00;4.00;;;;;21.08;42.73;97938.48;112534;1260;19506;-77
2024/01/15 10:11:27;;;;;;;;;7.00;7.00;;;;;21.03;42.03;97942.73;112264;1260;20097;-77
2024/01/15 10:13:57;;;;;;;;;6.00;6.00;;;;;20.94;41.02;97936.54;112446;1260;20679;-76
2024/01/15 10:16:24;;;;;;;;;7.00;6.00;;;;;20.91;40.61;97927.64;112444;1260;19476;-77
2024/01/15 10:18:52;;;;;;;;;6.00;4.00;;;;;20.89;40.08;97926.90;112303;1244;20082;-77
2024/01/15 10:21:19;;;;;;;;;4.00;4.00;;;;;20.84;39.60;97927.25;112500;1244;21771;-78
2024/01/15 10:23:47;;;;;;;;;4.00;4.00;;;;;20.78;39.18;97929.81;112327;1260;19673;-77
2024/01/15 10:26:14;;;;;;;;;8.33;7.00;;;;;20.79;38.83;97924.55;112491;1260;18602;-78
2024/01/15 10:28:42;;;;;;;;;4.00;4.00;;;;;20.78;38.27;97923.19;112372;1260;19329;-76
2024/01/15 10:31:10;;;;;;;;;6.00;4.67;;;;;20.71;37.52;97923.91;112495;1260;18731;-76
2024/01/15 10:33:38;;;;;;;;;3.50;3.50;;;;;20.70;37.34;97929.63;112281;1260;18660;-76
2024/01/15 10:36:05;;;;;;;;;6.00;4.00;;;;;20.71;37.15;97927.63;112467;1260;19576;-77
2024/01/15 10:38:33;;;;;;;;;3.67;3.67;;;;;20.66;36.58;97931.52;112278;1244;19534;-77
2024/01/15 10:41:00;;;;;;;;;4.00;4.00;;;;;20.65;36.24;97929.77;112492;1252;19002;-76
2024/01/15 10:43:28;;;;;;;;;4.67;4.67;;;;;20.61;36.30;97924.54;112320;1260;20822;-77
2024/01/15 10:45:56;;;;;;;;;6.00;6.00;;;;;20.59;35.54;97925.00;112323;1260;20182;-77
2024/01/15 10:48:23;;;;;;;;;4.00;4.00;;;;;20.58;35.85;97928.06;112296;1260;19879;-77
2024/01/15 10:50:51;;;;;;;;;4.00;4.00;;;;;20.60;35.27;97936.90;112451;1260;20890;-77
2024/01/15 10:53:18;;;;;;;;;4.00;3.00;;;;;20.58;35.15;97933.98;112291;1260;18632;-77
2024/01/15 10:55:46;;;;;;;;;6.00;4.00;;;;;20.59;35.05;97931.28;112484;1260;20081;-77
2024/01/15 10:58:13;;;;;;;;;4.00;4.00;;;;;20.56;34.70;97930.25;112382;1244;20945;-78
2024/01/15 11:00:41;;;;;;;;;3.00;3.00;;;;;20.59;34.80;97933.77;112437;1252;18166;-74
2024/01/15 11:03:08;;;;;;;;;6.00;4.00;;;;;20.78;34.96;97927.23;112150;1252;19915;-76
2024/01/15 11:05:35;;;;;;;;;4.00;4.00;;;;;21.08;35.42;97932.64;112102;1252;19341;-72
2024/01/15 11:08:03;;;;;;;;;6.50;6.00;;;;;21.05;36.30;97935.27;112139;1260;18145;-74
2024/01/15 11:10:30;;;;;;;;;12.00;10.00;;;;;20.94;37.12;97936.24;112095;1253;18747;-73
2024/01/15 11:13:00;;;;;;;;;17.00;12.00;;;;;20.96;37.59;97934.66;112119;1260;19608;-75
2024/01/15 11:15:29;;;;;;;;;34.00;26.00;;;;;20.92;37.66;97935.22;112148;1247;19345;-74
2024/01/15 11:17:56;;;;;;;;;36.50;30.50;;;;;20.95;38.39;97934.02;112152;1245;18922;-74
2024/01/15 11:20:23;;;;;;;;;32.33;29.33;;;;;20.94;38.38;97933.66;112152;1260;19589;-74
2024/01/15 11:22:51;;;;;;;;;48.00;36.50;;;;;20.99;39.25;97929.79;112118;1260;18626;-74
2024/01/15 11:25:18;;;;;;;;;52.00;35.00;;;;;21.06;39.13;97930.94;112108;1260;18911;-74